Time;durP1;ratioP1;P1;durP2;ratioP2;P2;SDS_P1;SDS_P2;PMS_P1;PMS_P2;Temp;Humidity;BMP_temperature;BMP_pressure;BME280_temperature;BME280_humidity;BME280_pressure;Samples;Min_cycle;Max_cycle;Signal;HPM_P1;HPM_P2
2023/12/28 00:00:00;;;;;;;31.30;7.35;;;10.80;99.90;;;;;;5093788;28;20382;-71
2023/12/28 00:02:25;;;;;;;27.80;6.15;;;10.80;99.90;;;;;;5095411;28;20477;-72
2023/12/28 00:04:51;;;;;;;27.45;5.90;;;10.80;99.90;;;;;;5095604;28;20036;-71
2023/12/28 00:07:16;;;;;;;25.90;6.60;;;10.80;99.90;;;;;;5101282;28;20401;-72
2023/12/28 00:09:42;;;;;;;26.08;7.15;;;10.80;99.90;;;;;;5114095;28;20032;-71
2023/12/28 00:12:07;;;;;;;26.88;6.90;;;10.80;99.90;;;;;;5115806;28;20028;-71
2023/12/28 00:14:33;;;;;;;27.00;7.10;;;10.80;99.90;;;;;;5104039;28;20046;-71
2023/12/28 00:16:58;;;;;;;29.08;6.20;;;10.80;99.90;;;;;;5095169;28;20032;-70
2023/12/28 00:19:24;;;;;;;32.00;7.85;;;10.90;99.90;;;;;;5104346;28;20095;-71
2023/12/28 00:21:49;;;;;;;28.58;6.57;;;10.90;99.90;;;;;;5111937;28;20024;-71
2023/12/28 00:24:16;;;;;;;27.80;6.80;;;10.90;99.90;;;;;;5098747;28;20045;-71
2023/12/28 00:26:42;;;;;;;31.85;6.78;;;10.90;99.90;;;;;;5115152;28;20026;-71
2023/12/28 00:29:07;;;;;;;28.67;7.10;;;10.90;99.90;;;;;;5115128;28;20023;-71
2023/12/28 00:31:33;;;;;;;27.60;5.90;;;10.90;99.90;;;;;;5115104;28;20102;-72
2023/12/28 00:33:58;;;;;;;28.55;6.07;;;11.00;99.90;;;;;;5113040;28;20115;-71
2023/12/28 00:36:24;;;;;;;28.67;7.50;;;11.00;99.90;;;;;;5114850;28;20020;-72
2023/12/28 00:38:50;;;;;;;23.20;6.00;;;11.00;99.90;;;;;;5114564;28;20473;-71
2023/12/28 00:41:15;;;;;;;31.38;5.68;;;11.00;99.90;;;;;;5115218;28;20095;-71
2023/12/28 00:43:41;;;;;;;23.77;5.45;;;11.00;99.90;;;;;;5115494;28;20084;-71
2023/12/28 00:46:06;;;;;;;25.30;5.10;;;11.00;99.90;;;;;;5115388;28;20444;-72
2023/12/28 00:48:32;;;;;;;21.25;5.32;;;11.00;99.90;;;;;;5115300;28;20054;-72
2023/12/28 00:50:58;;;;;;;26.13;5.78;;;11.00;99.90;;;;;;5112202;28;20027;-72
2023/12/28 00:53:26;;;;;;;25.83;5.50;;;11.00;99.90;;;;;;5115055;28;20070;-72
2023/12/28 00:55:51;;;;;;;27.35;5.85;;;11.00;99.90;;;;;;5115238;28;20028;-72
2023/12/28 00:58:17;;;;;;;22.25;5.28;;;11.00;99.90;;;;;;5115251;28;20024;-72
2023/12/28 01:00:42;;;;;;;26.77;6.10;;;11.00;99.90;;;;;;5114643;28;20048;-72
2023/12/28 01:03:08;;;;;;;23.75;5.25;;;11.00;99.90;;;;;;5114825;28;20023;-72
2023/12/28 01:05:33;;;;;;;29.00;5.65;;;11.00;99.90;;;;;;5111507;28;20419;-72
2023/12/28 01:07:59;;;;;;;20.98;5.10;;;11.00;99.90;;;;;;5102620;28;20058;-72
2023/12/28 01:10:24;;;;;;;23.13;4.82;;;11.00;99.90;;;;;;5114442;28;20027;-72
2023/12/28 01:12:50;;;;;;;30.50;5.40;;;11.00;99.90;;;;;;5096065;28;20028;-71
2023/12/28 01:15:17;;;;;;;24.55;5.55;;;11.10;99.90;;;;;;5094269;28;20413;-72
2023/12/28 01:17:43;;;;;;;27.40;6.95;;;11.00;99.90;;;;;;5105881;28;20039;-72
2023/12/28 01:20:09;;;;;;;23.17;5.25;;;11.00;99.90;;;;;;5104706;28;20058;-72
2023/12/28 01:22:35;;;;;;;19.42;4.57;;;11.00;99.90;;;;;;5094128;28;20059;-72
2023/12/28 01:25:00;;;;;;;21.95;5.43;;;11.00;99.90;;;;;;5093658;28;20089;-72
2023/12/28 01:27:26;;;;;;;21.13;5.25;;;11.00;99.90;;;;;;5093403;28;20024;-72
2023/12/28 01:29:51;;;;;;;21.60;5.03;;;11.10;99.90;;;;;;5094049;28;20079;-72
2023/12/28 01:32:17;;;;;;;24.33;4.75;;;11.10;99.90;;;;;;5101488;28;20381;-72
2023/12/28 01:34:42;;;;;;;14.93;4.07;;;11.10;99.90;;;;;;5114108;28;20036;-72
2023/12/28 01:37:08;;;;;;;21.58;4.05;;;11.10;99.90;;;;;;5111549;28;20035;-72
2023/12/28 01:39:34;;;;;;;21.35;4.45;;;11.10;99.90;;;;;;5113999;28;20034;-72
2023/12/28 01:41:59;;;;;;;16.23;4.72;;;11.20;99.90;;;;;;5114276;28;20087;-72
2023/12/28 01:44:25;;;;;;;20.75;4.07;;;11.30;99.90;;;;;;5114153;28;20031;-72
2023/12/28 01:46:50;;;;;;;21.10;3.88;;;11.30;99.90;;;;;;5113300;28;20039;-72
2023/12/28 01:49:16;;;;;;;19.63;4.22;;;11.30;99.90;;;;;;5112234;28;20072;-72
2023/12/28 01:51:43;;;;;;;23.15;4.57;;;11.30;99.90;;;;;;5113783;28;20500;-72
2023/12/28 01:54:09;;;;;;;15.35;3.75;;;11.30;99.90;;;;;;5112342;28;20424;-73
2023/12/28 01:56:35;;;;;;;19.45;3.92;;;11.30;99.90;;;;;;5113817;28;20032;-72
2023/12/28 01:59:00;;;;;;;13.73;4.28;;;11.30;99.90;;;;;;5113474;28;20034;-73
2023/12/28 02:01:26;;;;;;;18.67;4.35;;;11.30;99.90;;;;;;5113852;28;20052;-73
2023/12/28 02:03:53;;;;;;;21.77;4.70;;;11.30;99.90;;;;;;5113355;28;20488;-73
2023/12/28 02:06:23;;;;;;;20.40;4.72;;;11.30;99.90;;;;;;5112273;28;20027;-73
2023/12/28 02:08:48;;;;;;;16.45;3.72;;;11.30;99.90;;;;;;5113407;28;20664;-73
2023/12/28 02:11:14;;;;;;;13.23;2.92;;;11.20;99.90;;;;;;5101423;28;20056;-72
2023/12/28 02:13:40;;;;;;;17.60;4.15;;;11.20;99.90;;;;;;5093209;28;20519;-73
2023/12/28 02:16:25;;;;;;;16.70;3.38;;;11.20;99.90;;;;;;5093257;28;20028;-72
2023/12/28 02:18:54;;;;;;;17.83;4.20;;;11.20;99.90;;;;;;5092967;28;20031;-73
2023/12/28 02:21:20;;;;;;;19.05;3.90;;;11.20;99.90;;;;;;5096416;28;20023;-73
2023/12/28 02:23:48;;;;;;;20.27;4.20;;;11.20;99.90;;;;;;5113082;28;20110;-73
2023/12/28 02:26:14;;;;;;;21.30;3.63;;;11.20;99.90;;;;;;5090779;28;20031;-73
2023/12/28 02:28:39;;;;;;;13.50;3.30;;;11.20;99.90;;;;;;5093085;28;20081;-73
2023/12/28 02:31:07;;;;;;;14.77;3.50;;;11.20;99.90;;;;;;5092777;28;20059;-73
2023/12/28 02:33:53;;;;;;;22.75;4.53;;;11.20;99.90;;;;;;5092841;28;20028;-72
2023/12/28 02:36:23;;;;;;;18.85;4.07;;;11.20;99.90;;;;;;5100479;28;20076;-72
2023/12/28 02:38:49;;;;;;;18.13;4.07;;;11.20;99.90;;;;;;5113363;28;20031;-73
2023/12/28 02:41:16;;;;;;;18.70;4.40;;;11.20;99.90;;;;;;5111608;28;20046;-73
2023/12/28 02:43:41;;;;;;;20.58;4.57;;;11.20;99.90;;;;;;5112770;28;20042;-72
2023/12/28 02:46:07;;;;;;;24.83;4.72;;;11.30;99.90;;;;;;5113131;28;20028;-72
2023/12/28 02:48:33;;;;;;;28.92;4.82;;;11.30;99.90;;;;;;5112601;28;20027;-72
2023/12/28 02:50:58;;;;;;;23.98;4.10;;;11.30;99.90;;;;;;5111543;28;20023;-71
2023/12/28 02:53:24;;;;;;;18.83;4.82;;;11.30;99.90;;;;;;5112364;28;20035;-72
2023/12/28 02:55:49;;;;;;;22.38;4.10;;;11.30;99.90;;;;;;5112872;28;20150;-72
2023/12/28 02:58:15;;;;;;;19.73;3.95;;;11.30;99.90;;;;;;5112396;28;20032;-72
2023/12/28 03:00:40;;;;;;;21.75;4.35;;;11.30;99.90;;;;;;5109955;28;20042;-71
2023/12/28 03:03:06;;;;;;;21.70;5.13;;;11.30;99.90;;;;;;5112600;28;20023;-72
2023/12/28 03:05:31;;;;;;;19.40;3.97;;;11.30;99.90;;;;;;5112652;28;20495;-73
2023/12/28 03:07:58;;;;;;;22.25;4.57;;;11.30;99.90;;;;;;5112077;28;20098;-73
2023/12/28 03:10:24;;;;;;;25.33;4.57;;;11.30;99.90;;;;;;5112854;28;20020;-73
2023/12/28 03:12:49;;;;;;;19.45;4.38;;;11.20;99.90;;;;;;5112211;28;20530;-73
2023/12/28 03:15:15;;;;;;;24.00;4.40;;;11.20;99.90;;;;;;5110407;28;20107;-73
2023/12/28 03:17:40;;;;;;;18.60;3.83;;;11.20;99.90;;;;;;5112768;28;20031;-72
2023/12/28 03:20:06;;;;;;;22.10;5.05;;;11.20;99.90;;;;;;5112431;28;20024;-73
2023/12/28 03:22:32;;;;;;;21.10;4.22;;;11.20;99.90;;;;;;5099500;28;20028;-73
2023/12/28 03:24:58;;;;;;;24.70;5.07;;;11.20;99.90;;;;;;5091998;28;20081;-72
2023/12/28 03:27:23;;;;;;;19.27;4.15;;;11.20;99.90;;;;;;5096298;28;20092;-73
2023/12/28 03:29:49;;;;;;;22.38;4.63;;;11.20;99.90;;;;;;5112409;28;20038;-73
2023/12/28 03:32:15;;;;;;;25.35;4.68;;;11.20;99.90;;;;;;5112590;28;20027;-73
2023/12/28 03:34:41;;;;;;;14.15;4.35;;;11.20;99.90;;;;;;5116314;28;20059;-73
2023/12/28 03:37:06;;;;;;;20.17;4.43;;;11.20;99.90;;;;;;5116826;28;20063;-73
2023/12/28 03:39:33;;;;;;;20.58;4.65;;;11.20;99.90;;;;;;5101226;28;20077;-72
2023/12/28 03:41:58;;;;;;;24.67;4.47;;;11.20;99.90;;;;;;5095673;28;20096;-73
2023/12/28 03:44:25;;;;;;;24.10;4.68;;;11.20;99.90;;;;;;5095629;28;20035;-73
2023/12/28 03:46:51;;;;;;;23.40;5.40;;;11.20;99.90;;;;;;5097284;28;20182;-73
2023/12/28 03:49:20;;;;;;;30.38;4.75;;;11.20;99.90;;;;;;5116201;28;20482;-73
2023/12/28 03:51:49;;;;;;;25.33;4.35;;;11.20;99.90;;;;;;5116344;28;20107;-73
2023/12/28 03:54:18;;;;;;;20.90;4.10;;;11.20;99.90;;;;;;5115058;28;20046;-73
2023/12/28 03:56:46;;;;;;;22.45;4.45;;;11.20;99.90;;;;;;5113437;28;20106;-73
2023/12/28 03:59:11;;;;;;;25.40;4.50;;;11.20;99.90;;;;;;5097919;28;20047;-72
2023/12/28 04:01:37;;;;;;;26.90;4.43;;;11.20;99.90;;;;;;5099339;28;20044;-74
2023/12/28 04:04:03;;;;;;;20.67;4.82;;;11.30;99.90;;;;;;5095693;28;20071;-72
2023/12/28 04:06:28;;;;;;;26.77;4.72;;;11.30;99.90;;;;;;5095848;28;20170;-74
2023/12/28 04:08:54;;;;;;;22.33;4.47;;;11.40;99.90;;;;;;5095280;28;20032;-71
2023/12/28 04:11:20;;;;;;;24.15;5.05;;;11.40;99.90;;;;;;5094483;28;20446;-72
2023/12/28 04:13:45;;;;;;;21.13;3.92;;;11.40;99.90;;;;;;5115891;28;20043;-72
2023/12/28 04:16:15;;;;;;;24.80;5.50;;;11.50;99.90;;;;;;5115910;28;20106;-72
2023/12/28 04:18:45;;;;;;;21.90;4.75;;;11.40;99.90;;;;;;5106462;28;20028;-72
2023/12/28 04:21:11;;;;;;;16.55;4.15;;;11.50;99.90;;;;;;5094912;28;20451;-72
2023/12/28 04:23:38;;;;;;;24.50;4.95;;;11.40;99.90;;;;;;5094376;28;20082;-72
2023/12/28 04:26:03;;;;;;;26.98;5.28;;;11.40;99.90;;;;;;5095129;28;20046;-73
2023/12/28 04:28:29;;;;;;;24.23;4.82;;;11.40;99.90;;;;;;5094792;28;20111;-71
2023/12/28 04:30:55;;;;;;;19.83;3.88;;;11.40;99.90;;;;;;5095144;28;20369;-72
2023/12/28 04:33:21;;;;;;;22.40;5.10;;;11.50;99.90;;;;;;5094897;28;20028;-72
2023/12/28 04:35:46;;;;;;;25.25;5.32;;;11.50;99.90;;;;;;5095140;28;20077;-72
2023/12/28 04:38:12;;;;;;;21.35;4.13;;;11.50;99.90;;;;;;5100316;28;20030;-72
2023/12/28 04:40:38;;;;;;;27.30;5.07;;;11.50;99.90;;;;;;5115214;28;20520;-72
2023/12/28 04:43:04;;;;;;;28.00;5.32;;;11.60;99.90;;;;;;5115299;28;20076;-72
2023/12/28 04:45:29;;;;;;;22.13;5.00;;;11.60;99.90;;;;;;5114509;28;20032;-72
2023/12/28 04:47:55;;;;;;;25.27;4.90;;;11.60;99.90;;;;;;5115188;28;20210;-72
2023/12/28 04:50:21;;;;;;;32.25;5.15;;;11.60;99.90;;;;;;5115524;28;20419;-71
2023/12/28 04:52:46;;;;;;;24.30;4.95;;;11.60;99.90;;;;;;5114961;28;20033;-72
2023/12/28 04:55:12;;;;;;;25.42;4.85;;;11.70;99.90;;;;;;5113294;28;20028;-72
2023/12/28 04:57:37;;;;;;;23.70;4.60;;;11.70;99.90;;;;;;5113326;28;20023;-72
2023/12/28 05:00:04;;;;;;;25.90;4.53;;;11.70;99.90;;;;;;5094261;28;20024;-72
2023/12/28 05:02:29;;;;;;;22.17;4.72;;;11.60;99.90;;;;;;5094495;28;20465;-72
2023/12/28 05:04:55;;;;;;;26.52;5.95;;;11.60;99.90;;;;;;5094333;28;20024;-72
2023/12/28 05:07:21;;;;;;;26.58;5.00;;;11.60;99.90;;;;;;5094312;28;20036;-72
2023/12/28 05:09:46;;;;;;;25.75;5.18;;;11.50;99.90;;;;;;5111345;28;20030;-72
2023/12/28 05:12:12;;;;;;;25.33;5.07;;;11.50;99.90;;;;;;5114661;28;20016;-72
2023/12/28 05:14:37;;;;;;;28.42;5.97;;;11.40;99.90;;;;;;5112937;28;20053;-72
2023/12/28 05:17:03;;;;;;;28.40;5.55;;;11.40;99.90;;;;;;5095896;28;20137;-72
2023/12/28 05:19:29;;;;;;;31.40;5.50;;;11.30;99.90;;;;;;5094589;28;20457;-73
2023/12/28 05:21:55;;;;;;;33.10;5.60;;;11.40;99.90;;;;;;5094160;28;20034;-73
2023/12/28 05:24:20;;;;;;;31.23;5.50;;;11.40;99.90;;;;;;5093212;28;20048;-72
2023/12/28 05:26:46;;;;;;;29.85;4.93;;;11.40;99.90;;;;;;5093188;28;20034;-72
2023/12/28 05:29:11;;;;;;;31.98;5.53;;;11.40;99.90;;;;;;5094308;28;20024;-72
2023/12/28 05:31:37;;;;;;;27.83;4.65;;;11.40;99.90;;;;;;5094188;28;20020;-73
2023/12/28 05:34:02;;;;;;;29.80;5.93;;;11.40;99.90;;;;;;5103355;28;20040;-72
2023/12/28 05:36:28;;;;;;;26.55;4.80;;;11.50;99.90;;;;;;5114269;28;20028;-73
2023/12/28 05:38:54;;;;;;;33.00;7.00;;;11.50;99.90;;;;;;5112625;28;20020;-72
2023/12/28 05:41:20;;;;;;;21.13;4.72;;;11.50;99.90;;;;;;5114060;28;20456;-73
2023/12/28 05:43:46;;;;;;;31.52;4.78;;;11.50;99.90;;;;;;5114330;28;20027;-72
2023/12/28 05:46:11;;;;;;;30.20;6.30;;;11.50;99.90;;;;;;5107011;28;20048;-73
2023/12/28 05:48:37;;;;;;;30.23;6.35;;;11.50;99.90;;;;;;5093489;28;20035;-72
2023/12/28 05:51:03;;;;;;;27.70;6.28;;;11.60;99.90;;;;;;5093444;28;20080;-73
2023/12/28 05:53:29;;;;;;;29.48;5.80;;;11.60;99.90;;;;;;5093804;28;20099;-73
2023/12/28 05:55:54;;;;;;;34.30;6.03;;;11.60;99.90;;;;;;5075378;28;20035;-73
2023/12/28 05:58:20;;;;;;;29.85;5.65;;;11.60;99.90;;;;;;5093731;28;20035;-72
2023/12/28 06:00:48;;;;;;;24.85;6.07;;;11.60;99.90;;;;;;5093581;28;20163;-72
2023/12/28 06:03:14;;;;;;;41.15;6.40;;;11.60;99.90;;;;;;5093486;28;20056;-72
2023/12/28 06:05:40;;;;;;;23.30;5.47;;;11.60;99.90;;;;;;5093390;28;20028;-72
2023/12/28 06:08:06;;;;;;;35.20;7.40;;;11.70;99.90;;;;;;5093350;28;20660;-72
2023/12/28 06:10:32;;;;;;;27.55;6.40;;;11.70;99.90;;;;;;5097242;28;20042;-73
2023/12/28 06:12:57;;;;;;;34.75;6.95;;;11.70;99.90;;;;;;5111759;28;20023;-72
2023/12/28 06:15:23;;;;;;;30.80;6.78;;;11.70;99.90;;;;;;5110392;28;20030;-73
2023/12/28 06:17:49;;;;;;;30.13;6.88;;;11.80;99.90;;;;;;5104463;28;20024;-72
2023/12/28 06:20:15;;;;;;;38.55;6.78;;;11.80;99.90;;;;;;5092573;28;20020;-72
2023/12/28 06:22:40;;;;;;;36.00;7.15;;;11.80;99.90;;;;;;5093237;28;20113;-72
2023/12/28 06:25:08;;;;;;;37.13;7.45;;;11.70;99.90;;;;;;5092106;28;20090;-72
2023/12/28 06:27:33;;;;;;;32.72;7.05;;;11.70;99.90;;;;;;5093022;28;20032;-72
2023/12/28 06:29:59;;;;;;;37.58;7.10;;;11.70;99.90;;;;;;5092668;28;20028;-73
2023/12/28 06:32:24;;;;;;;32.80;6.75;;;11.70;99.90;;;;;;5093144;28;20036;-73
2023/12/28 06:34:50;;;;;;;30.77;7.13;;;11.70;99.90;;;;;;5092451;28;20024;-72
2023/12/28 06:37:16;;;;;;;34.85;7.72;;;11.70;99.90;;;;;;5109851;28;20027;-73
2023/12/28 06:39:41;;;;;;;29.60;6.65;;;11.60;99.90;;;;;;5110463;28;20027;-73
2023/12/28 06:42:07;;;;;;;40.05;7.13;;;11.60;99.90;;;;;;5111743;28;20063;-72
2023/12/28 06:44:33;;;;;;;33.85;8.35;;;11.60;99.90;;;;;;5113312;28;20383;-72
2023/12/28 06:46:58;;;;;;;38.35;7.00;;;11.50;99.90;;;;;;5113345;28;20027;-72
2023/12/28 06:49:24;;;;;;;42.80;7.88;;;11.50;99.90;;;;;;5112202;28;20377;-72
2023/12/28 06:51:50;;;;;;;45.22;8.48;;;11.40;99.90;;;;;;5111635;28;20081;-72
2023/12/28 06:54:16;;;;;;;39.50;7.50;;;11.40;99.90;;;;;;5113064;28;20032;-72
2023/12/28 06:56:42;;;;;;;39.65;7.32;;;11.40;99.90;;;;;;5111456;28;20027;-72
2023/12/28 06:59:11;;;;;;;49.15;9.23;;;11.40;99.90;;;;;;5112560;28;20034;-72
2023/12/28 07:01:40;;;;;;;36.15;7.30;;;11.30;99.90;;;;;;5112489;28;20060;-72
2023/12/28 07:04:05;;;;;;;36.95;7.28;;;11.30;99.90;;;;;;5109880;28;20027;-72
2023/12/28 07:06:31;;;;;;;37.53;7.72;;;11.30;99.90;;;;;;5109350;28;20024;-72
2023/12/28 07:08:57;;;;;;;38.20;8.75;;;11.30;99.90;;;;;;5112373;28;20035;-71
2023/12/28 07:11:22;;;;;;;44.47;8.77;;;11.30;99.90;;;;;;5112451;28;20073;-72
2023/12/28 07:13:48;;;;;;;37.92;7.38;;;11.30;99.90;;;;;;5111365;28;20072;-72
2023/12/28 07:16:14;;;;;;;35.55;7.43;;;11.20;99.90;;;;;;5111852;28;20536;-72
2023/12/28 07:18:39;;;;;;;41.35;7.78;;;11.30;99.90;;;;;;5112410;28;20073;-72
2023/12/28 07:21:09;;;;;;;40.38;7.95;;;11.20;99.90;;;;;;5112748;28;20031;-72
2023/12/28 07:23:35;;;;;;;37.63;8.15;;;11.20;99.90;;;;;;5111954;28;20472;-72
2023/12/28 07:26:01;;;;;;;39.88;7.15;;;11.30;99.90;;;;;;5098602;28;20496;-72
2023/12/28 07:28:27;;;;;;;40.80;7.97;;;11.30;99.90;;;;;;5112863;28;20020;-72
2023/12/28 07:30:53;;;;;;;39.40;8.02;;;11.30;99.90;;;;;;5112022;28;20297;-72
2023/12/28 07:33:19;;;;;;;41.08;8.43;;;11.30;99.90;;;;;;5110613;28;20028;-72
2023/12/28 07:35:44;;;;;;;33.45;8.38;;;11.30;99.90;;;;;;5112298;28;20030;-72
2023/12/28 07:38:10;;;;;;;37.85;7.97;;;11.30;99.90;;;;;;5112653;28;20019;-70
2023/12/28 07:40:35;;;;;;;37.35;9.25;;;11.30;99.90;;;;;;5112735;28;20023;-72
2023/12/28 07:43:01;;;;;;;32.20;7.05;;;11.40;99.90;;;;;;5098232;28;20024;-72
2023/12/28 07:45:26;;;;;;;36.67;7.72;;;11.30;99.90;;;;;;5112232;28;20062;-71
2023/12/28 07:47:52;;;;;;;36.95;7.88;;;11.40;99.90;;;;;;5112401;28;20032;-72
2023/12/28 07:50:18;;;;;;;25.33;6.38;;;11.40;99.90;;;;;;5112485;28;20081;-72
2023/12/28 07:52:45;;;;;;;37.60;7.38;;;11.40;99.90;;;;;;5112213;28;20032;-71
2023/12/28 07:55:11;;;;;;;34.28;7.47;;;11.40;99.90;;;;;;5112343;28;20470;-71
2023/12/28 07:57:36;;;;;;;34.03;7.50;;;11.40;99.90;;;;;;5093951;28;20035;-71
2023/12/28 08:00:03;;;;;;;35.95;6.82;;;11.40;99.90;;;;;;5110095;28;20031;-70
2023/12/28 08:02:29;;;;;;;32.85;7.32;;;11.40;99.90;;;;;;5112384;28;20020;-71
2023/12/28 08:04:54;;;;;;;33.28;7.60;;;11.50;99.90;;;;;;5108895;28;20036;-71
2023/12/28 08:07:20;;;;;;;35.85;7.13;;;11.50;99.90;;;;;;5111004;28;20098;-71
2023/12/28 08:09:45;;;;;;;35.33;7.50;;;11.50;99.90;;;;;;5107088;28;20020;-72
2023/12/28 08:12:11;;;;;;;30.65;6.95;;;11.50;99.90;;;;;;5110564;28;20030;-72
2023/12/28 08:14:36;;;;;;;38.45;6.70;;;11.60;99.90;;;;;;5109345;28;20019;-72
2023/12/28 08:17:03;;;;;;;36.15;6.38;;;11.60;99.90;;;;;;5105535;28;20012;-71
2023/12/28 08:19:28;;;;;;;36.03;6.88;;;11.60;99.90;;;;;;5108840;28;20027;-72
2023/12/28 08:21:54;;;;;;;43.17;7.35;;;11.60;99.90;;;;;;5114039;28;20015;-72
2023/12/28 08:24:21;;;;;;;32.78;7.65;;;11.60;99.90;;;;;;5114021;28;20028;-72
2023/12/28 08:26:46;;;;;;;32.72;7.97;;;11.60;99.90;;;;;;5110753;28;20358;-73
2023/12/28 08:29:12;;;;;;;29.80;5.90;;;11.60;99.90;;;;;;5114497;28;20034;-72
2023/12/28 08:31:38;;;;;;;27.92;5.68;;;11.60;99.90;;;;;;5114397;28;20024;-71
2023/12/28 08:34:03;;;;;;;29.85;6.63;;;11.70;99.90;;;;;;5113034;28;20084;-72
2023/12/28 08:36:29;;;;;;;33.92;6.97;;;11.70;99.90;;;;;;5112729;28;20024;-71
2023/12/28 08:38:55;;;;;;;34.58;7.43;;;11.80;99.90;;;;;;5113268;28;20020;-71
2023/12/28 08:41:24;;;;;;;30.95;5.90;;;11.80;99.90;;;;;;5113795;28;20023;-72
2023/12/28 08:43:50;;;;;;;33.10;6.60;;;11.80;99.90;;;;;;5112602;28;20032;-72
2023/12/28 08:46:16;;;;;;;31.48;6.57;;;11.80;99.90;;;;;;5112784;28;20408;-72
2023/12/28 08:48:42;;;;;;;36.58;6.88;;;11.90;99.90;;;;;;5113606;27;20019;-71
2023/12/28 08:51:10;;;;;;;30.98;6.07;;;11.90;99.90;;;;;;5108198;28;20026;-72
2023/12/28 08:53:35;;;;;;;31.80;6.45;;;11.90;99.90;;;;;;5113317;28;20023;-72
2023/12/28 08:56:02;;;;;;;29.65;5.82;;;11.90;99.90;;;;;;5113653;28;20023;-71
2023/12/28 08:58:27;;;;;;;26.27;6.00;;;11.90;99.90;;;;;;5113519;28;20380;-72
2023/12/28 09:00:53;;;;;;;33.65;6.13;;;11.90;99.90;;;;;;5111981;28;20044;-71
2023/12/28 09:03:18;;;;;;;31.40;6.05;;;11.90;99.90;;;;;;5106178;28;20095;-71
2023/12/28 09:05:44;;;;;;;30.75;6.22;;;11.90;99.90;;;;;;5111046;28;20481;-72
2023/12/28 09:08:10;;;;;;;34.53;7.63;;;11.90;99.90;;;;;;5112665;28;20035;-71
2023/12/28 09:10:36;;;;;;;32.83;5.78;;;11.90;99.90;;;;;;5113492;28;20016;-72
2023/12/28 09:13:05;;;;;;;27.55;6.32;;;11.90;99.90;;;;;;5111112;28;20028;-72
2023/12/28 09:15:31;;;;;;;29.90;6.40;;;11.80;99.90;;;;;;5111043;28;20020;-72
2023/12/28 09:17:56;;;;;;;31.27;6.70;;;11.80;99.90;;;;;;5113218;28;20028;-72
2023/12/28 09:20:22;;;;;;;29.35;4.90;;;11.90;99.90;;;;;;5112881;28;20051;-72
2023/12/28 09:22:53;;;;;;;27.23;6.07;;;11.80;99.90;;;;;;5113485;28;20096;-72
2023/12/28 09:25:18;;;;;;;38.78;6.68;;;11.80;99.90;;;;;;5110076;28;20384;-71
2023/12/28 09:27:44;;;;;;;35.58;6.43;;;11.80;99.90;;;;;;5107039;28;20028;-72
2023/12/28 09:30:11;;;;;;;34.65;6.20;;;11.90;99.90;;;;;;5096188;28;20030;-71
2023/12/28 09:32:37;;;;;;;30.58;5.97;;;11.90;99.90;;;;;;5113790;28;20057;-72
2023/12/28 09:35:03;;;;;;;34.40;6.22;;;12.00;99.90;;;;;;5113503;28;20019;-72
2023/12/28 09:37:28;;;;;;;33.45;6.00;;;12.00;99.90;;;;;;5113749;28;20028;-71
2023/12/28 09:39:54;;;;;;;29.95;6.00;;;12.00;99.90;;;;;;5114130;28;20059;-71
2023/12/28 09:42:29;;;;;;;34.33;6.00;;;12.00;99.90;;;;;;5110361;28;20500;-71
2023/12/28 09:44:54;;;;;;;29.33;6.20;;;12.00;99.90;;;;;;5093863;28;20039;-71
2023/12/28 09:47:20;;;;;;;33.58;6.40;;;12.00;99.90;;;;;;5107043;28;20111;-71
2023/12/28 09:49:47;;;;;;;32.75;5.95;;;12.00;99.90;;;;;;5113786;28;20034;-71
2023/12/28 09:52:13;;;;;;;31.00;6.47;;;12.00;99.90;;;;;;5112503;28;20024;-72
2023/12/28 09:54:40;;;;;;;33.53;5.93;;;12.00;99.90;;;;;;5113595;28;20028;-71
2023/12/28 09:57:06;;;;;;;26.30;5.60;;;12.00;99.90;;;;;;5103374;28;20031;-71
2023/12/28 09:59:33;;;;;;;37.03;6.20;;;12.00;99.90;;;;;;5113794;28;20031;-71
2023/12/28 10:02:00;;;;;;;28.65;5.72;;;12.00;99.90;;;;;;5108411;28;20066;-71
2023/12/28 10:04:29;;;;;;;30.13;5.95;;;12.10;99.90;;;;;;5103441;28;20059;-71
2023/12/28 10:06:55;;;;;;;34.42;6.95;;;12.10;99.90;;;;;;5113554;28;20026;-71
2023/12/28 10:09:21;;;;;;;31.75;6.50;;;12.10;99.90;;;;;;5113538;28;20462;-71
2023/12/28 10:11:47;;;;;;;32.50;5.82;;;12.10;99.90;;;;;;5113625;28;20081;-72
2023/12/28 10:14:13;;;;;;;32.45;6.20;;;12.00;99.90;;;;;;5113154;28;20101;-71
2023/12/28 10:16:42;;;;;;;31.50;5.95;;;12.10;99.90;;;;;;5107281;28;20036;-72
2023/12/28 10:19:07;;;;;;;28.98;5.05;;;12.10;99.90;;;;;;5113451;28;20112;-71
2023/12/28 10:21:34;;;;;;;35.95;5.95;;;12.00;99.90;;;;;;5113749;28;20424;-71
2023/12/28 10:23:59;;;;;;;30.50;6.30;;;12.10;99.90;;;;;;5113110;28;20019;-72
2023/12/28 10:26:25;;;;;;;30.95;6.60;;;12.10;99.90;;;;;;5112743;28;20126;-71
2023/12/28 10:28:58;;;;;;;32.83;6.57;;;12.20;99.90;;;;;;5110490;28;20408;-70
2023/12/28 10:31:24;;;;;;;31.80;6.25;;;12.20;99.90;;;;;;5102905;28;20034;-71
2023/12/28 10:33:49;;;;;;;28.90;5.82;;;12.30;99.90;;;;;;5105608;28;20020;-70
2023/12/28 10:36:16;;;;;;;33.63;6.47;;;12.30;99.90;;;;;;5109074;28;20030;-71
2023/12/28 10:38:45;;;;;;;37.60;7.00;;;12.30;99.90;;;;;;5113186;28;20058;-71
2023/12/28 10:41:13;;;;;;;34.00;6.45;;;12.30;99.90;;;;;;5113125;28;20035;-70
2023/12/28 10:44:04;;;;;;;30.92;6.47;;;12.30;99.90;;;;;;5112863;28;20090;-70
2023/12/28 10:46:38;;;;;;;39.55;7.00;;;12.30;99.90;;;;;;5113191;28;20123;-70
2023/12/28 10:49:15;;;;;;;39.60;7.13;;;12.30;99.90;;;;;;5094564;28;20404;-70
2023/12/28 10:51:43;;;;;;;31.38;6.38;;;12.40;99.90;;;;;;5097154;28;20027;-71
2023/12/28 10:54:21;;;;;;;31.17;6.60;;;12.40;99.90;;;;;;5111075;28;20114;-71
2023/12/28 10:56:55;;;;;;;31.95;7.15;;;12.50;99.90;;;;;;5112777;28;20465;-70
2023/12/28 10:59:43;;;;;;;31.55;6.85;;;12.50;99.90;;;;;;5110927;28;20036;-70
2023/12/28 11:02:11;;;;;;;27.48;6.35;;;12.50;99.90;;;;;;5108533;28;20489;-70
2023/12/28 11:04:48;;;;;;;25.25;5.28;;;12.50;99.90;;;;;;5111421;28;20079;-70
2023/12/28 11:07:17;;;;;;;33.33;6.43;;;12.50;99.90;;;;;;5111349;28;20043;-70
2023/12/28 11:09:44;;;;;;;27.05;5.38;;;12.50;99.90;;;;;;5112138;28;20073;-72
2023/12/28 11:12:12;;;;;;;30.88;6.38;;;12.50;99.90;;;;;;5112398;28;20473;-71
2023/12/28 11:14:42;;;;;;;36.67;6.82;;;12.50;99.90;;;;;;5112126;28;20100;-69
2023/12/28 11:17:10;;;;;;;22.80;5.38;;;12.50;99.90;;;;;;5103355;28;20145;-70
2023/12/28 11:19:37;;;;;;;34.83;6.55;;;12.40;99.90;;;;;;5101361;28;20034;-71
2023/12/28 11:22:03;;;;;;;33.10;6.43;;;12.40;99.90;;;;;;5112453;28;20048;-71
2023/12/28 11:24:30;;;;;;;24.10;5.30;;;12.50;99.90;;;;;;5106745;28;20042;-70
2023/12/28 11:26:56;;;;;;;33.88;6.53;;;12.50;99.90;;;;;;5104306;28;20051;-71
2023/12/28 11:29:26;;;;;;;30.42;5.88;;;12.50;99.90;;;;;;5112229;28;20496;-70
2023/12/28 11:31:52;;;;;;;36.83;6.00;;;12.50;99.90;;;;;;5111776;28;20058;-70
2023/12/28 11:34:18;;;;;;;25.02;5.25;;;12.60;99.90;;;;;;5112002;28;20548;-71
2023/12/28 11:36:49;;;;;;;28.90;5.90;;;12.60;99.90;;;;;;5106143;28;20114;-71
2023/12/28 11:39:26;;;;;;;29.55;5.47;;;12.60;99.90;;;;;;5107411;28;20051;-70
2023/12/28 11:42:22;;;;;;;24.63;5.75;;;12.60;99.90;;;;;;5102944;28;20039;-71
2023/12/28 11:44:54;;;;;;;29.65;6.20;;;12.60;99.90;;;;;;5105963;28;20040;-71
2023/12/28 11:47:24;;;;;;;31.80;6.10;;;12.50;99.90;;;;;;5111700;28;20024;-70
2023/12/28 11:49:54;;;;;;;29.55;5.82;;;12.50;99.90;;;;;;5109041;28;20088;-70
2023/12/28 11:52:33;;;;;;;33.58;6.88;;;12.40;99.90;;;;;;5102142;28;20096;-70
2023/12/28 11:55:00;;;;;;;31.70;5.90;;;12.40;99.90;;;;;;5106932;28;20020;-70
2023/12/28 11:57:26;;;;;;;32.55;5.57;;;12.40;99.90;;;;;;5115524;28;20077;-71
2023/12/28 12:00:00;;;;;;;35.60;7.13;;;12.40;99.90;;;;;;5105077;28;20039;-70
2023/12/28 12:02:26;;;;;;;27.95;5.75;;;12.40;99.90;;;;;;5115986;28;20112;-70
2023/12/28 12:04:54;;;;;;;42.35;7.15;;;12.40;99.90;;;;;;5115566;28;20118;-70
2023/12/28 12:07:20;;;;;;;30.17;6.07;;;12.50;99.90;;;;;;5115748;28;20024;-70
2023/12/28 12:09:45;;;;;;;33.13;6.28;;;12.50;99.90;;;;;;5091921;28;20202;-71
2023/12/28 12:12:11;;;;;;;34.63;6.53;;;12.50;99.90;;;;;;5112375;28;20051;-70
2023/12/28 12:14:37;;;;;;;34.47;6.40;;;12.50;99.90;;;;;;5115606;28;20457;-71
2023/12/28 12:17:03;;;;;;;31.58;6.30;;;12.40;99.90;;;;;;5111440;28;20028;-71
2023/12/28 12:19:29;;;;;;;32.53;5.55;;;12.30;99.90;;;;;;5114978;28;20034;-70
2023/12/28 12:21:56;;;;;;;25.30;5.53;;;12.20;99.90;;;;;;5114851;28;20020;-70
2023/12/28 12:24:23;;;;;;;34.33;6.53;;;12.20;99.90;;;;;;5115100;28;20023;-70
2023/12/28 12:26:52;;;;;;;34.85;6.65;;;12.30;99.90;;;;;;5106776;28;20044;-70
2023/12/28 12:29:19;;;;;;;27.35;5.97;;;12.30;99.90;;;;;;5110541;28;20034;-70
2023/12/28 12:31:46;;;;;;;30.95;5.57;;;12.40;99.90;;;;;;5115222;28;20027;-70